Scf Baltica — A8IA5 — position and weather

sailwx.info

Track history (hours):
 
Tides and Currents Weather Stations Pressure Air Temp Water Temp Dewpoint Dewpoint Depression Visibility Wind Speed Wind Dir Waves Ship Positions

Scf Baltica

Last reported at 2017-Mar-26 22:33 UTC. Time now 2017-Mar-26 23:07 UTC.
Position N 49°31' W 003°40'.

Length 250 m; draft 8.8 m.

Type: Ship. MMSI: 636012813.

Date/timePositionNaut miles runAvg speedWind from/ knotsBaromVisibWave heightAir tempDewpointWater temp
2017-Mar-26 22:33N 49°31' W 003°40'8 7.1
2017-Mar-26 21:25N 49°27' W 003°51'16 8.1
2017-Mar-26 19:29N 49°19' W 004°11'28 9.1
2017-Mar-26 16:25N 49°05' W 004°48'910.0
2017-Mar-26 15:33N 49°01' W 004°60'1010.1
2017-Mar-26 14:33N 48°56' W 005°13'10 9.8
2017-Mar-26 13:33N 48°51' W 005°26'61 7.6
2017-Mar-26 05:34N 47°50' W 005°19'9 9.5
2017-Mar-26 04:34N 47°47' W 005°05'10 9.6
2017-Mar-26 03:28N 47°44' W 004°51'40 9.9
2017-Mar-25 23:25N 47°31' W 003°54'911.0
2017-Mar-25 22:33N 47°28' W 003°41'1211.8
2017-Mar-25 21:33N 47°21' W 003°27'1110.7
2017-Mar-25 20:34N 47°14' W 003°15'1110.6
2017-Mar-25 19:33N 47°07' W 003°03'1010.3
2017-Mar-25 18:33N 47°01' W 002°51'9 9.0
2017-Mar-25 17:34N 47°01' W 002°38'1110.8
2017-Mar-25 16:33N 47°06' W 002°24'1212.0
2017-Mar-25 15:33N 47°15' W 002°13'5 4.6
2017-Mar-25 14:23N 47°18' W 002°06'0 0.0
2017-Mar-25 13:32N 47°18' W 002°06'0 0.0
2017-Mar-25 12:11N 47°18' W 002°06'0 0.0
2017-Mar-25 11:26N 47°18' W 002°06'0 0.0
2017-Mar-25 10:32N 47°18' W 002°06'0 0.0
2017-Mar-25 09:32N 47°18' W 002°06'0 0.0
2017-Mar-25 08:29N 47°18' W 002°06'0 0.0
2017-Mar-25 07:23N 47°18' W 002°06'0 0.0
2017-Mar-25 06:32N 47°18' W 002°06'0 0.0
2017-Mar-25 05:32N 47°18' W 002°06'0 0.0
2017-Mar-25 04:32N 47°18' W 002°06'0 0.0
2017-Mar-25 03:29N 47°18' W 002°06'0 0.0
2017-Mar-25 02:32N 47°18' W 002°06'1 0.6
2017-Mar-25 01:32N 47°19' W 002°07'1 0.6
2017-Mar-25 00:31N 47°18' W 002°06'0 0.0
2017-Mar-24 23:31N 47°18' W 002°06'0 0.0
2017-Mar-24 22:31N 47°18' W 002°06'0 0.0
2017-Mar-24 21:31N 47°18' W 002°06'0 0.0
2017-Mar-24 20:31N 47°18' W 002°06'0 0.0
2017-Mar-24 19:31N 47°18' W 002°06'0 0.0
2017-Mar-24 18:31N 47°18' W 002°06'0 0.0
2017-Mar-24 17:31N 47°18' W 002°06'0 0.0
2017-Mar-24 16:31N 47°18' W 002°06'0 0.0
2017-Mar-24 15:04N 47°18' W 002°06'0 0.0
2017-Mar-24 14:10N 47°18' W 002°06'1 2.1
2017-Mar-24 13:32N 47°18' W 002°08'9 9.6
2017-Mar-24 12:33N 47°11' W 002°18'8 7.5
2017-Mar-24 11:33N 47°06' W 002°26'0 0.2
2017-Mar-24 10:24N 47°06' W 002°26'0 0.0
2017-Mar-24 09:33N 47°06' W 002°26'0 0.1
2017-Mar-24 08:33N 47°06' W 002°26'0 0.2
2017-Mar-24 07:33N 47°06' W 002°26'5 4.6
2017-Mar-24 06:33N 47°02' W 002°30'1110.5
2017-Mar-24 05:33N 46°58' W 002°44'9 9.4
2017-Mar-24 04:33N 46°58' W 002°58'1110.8
2017-Mar-24 03:32N 47°02' W 003°13'1010.4
2017-Mar-24 02:33N 47°06' W 003°26'1110.6
2017-Mar-24 01:33N 47°10' W 003°40'1110.7
2017-Mar-24 00:33N 47°15' W 003°55'4911.9
2017-Mar-23 20:27N 47°39' W 004°58'1010.9
2017-Mar-23 19:32N 47°44' W 005°10'3210.9
2017-Mar-23 16:33N 48°10' W 005°41'12610.4
2017-Mar-23 04:25N 49°46' W 003°37'1112.3
2017-Mar-23 03:33N 49°52' W 003°23'1211.9
2017-Mar-23 02:33N 49°57' W 003°07'1212.0
2017-Mar-23 01:31N 50°01' W 002°49'3012.9
2017-Mar-22 23:14N 50°09' W 002°04'913.9
2017-Mar-22 22:33N 50°12' W 001°50'1414.2
2017-Mar-22 21:33N 50°16' W 001°29'4513.6
2017-Mar-22 18:13N 50°27' W 000°20'812.6
2017-Mar-22 17:33N 50°30' W 000°07'1312.1
2017-Mar-22 16:29N 50°33' E 000°12'1211.7
2017-Mar-22 15:30N 50°36' E 000°30'1111.4
2017-Mar-22 14:33N 50°42' E 000°44'1212.0
2017-Mar-22 13:33N 50°48' E 001°00'1412.6
2017-Mar-22 12:28N 50°55' E 001°19'1212.8
2017-Mar-22 11:33N 51°04' E 001°32'1212.3
2017-Mar-22 10:33N 51°13' E 001°45'1211.8
2017-Mar-22 09:33N 51°23' E 001°54'1111.4
2017-Mar-22 08:33N 51°32' E 002°05'1211.5
2017-Mar-22 07:32N 51°41' E 002°17'180 9.4
2017-Mar-21 12:23N 54°30' E 000°30'1113.3
2017-Mar-21 11:33N 54°32' E 000°12'1313.5
2017-Mar-21 10:33N 54°35' W 000°10'9 0.2
2017-Mar-19 07:33N 54°37' W 000°25'8 7.9
2017-Mar-19 06:33N 54°35' W 000°12'8 8.3
2017-Mar-19 05:33N 54°33' E 000°02'9 8.6
2017-Mar-19 04:33N 54°31' E 000°16'12 9.0
2017-Mar-19 03:14N 54°29' E 000°36'175 6.1
2017-Mar-17 22:20N 52°09' E 003°33'6 7.9
2017-Mar-17 21:33N 52°06' E 003°41'9 9.5
2017-Mar-17 20:34N 52°02' E 003°56'9 8.6
2017-Mar-17 19:33N 51°58' E 004°08'4 3.6
2017-Mar-17 18:31N 51°55' E 004°12'0 0.0
2017-Mar-17 17:31N 51°55' E 004°12'0 0.0
2017-Mar-17 16:25N 51°55' E 004°12'0 0.0
2017-Mar-17 15:31N 51°55' E 004°12'0 0.0
2017-Mar-17 14:31N 51°55' E 004°12'0 0.0
2017-Mar-17 13:31N 51°55' E 004°12'0 0.0
2017-Mar-17 12:31N 51°55' E 004°12'0 0.0
2017-Mar-17 11:31N 51°55' E 004°12'0 0.0
2017-Mar-17 10:31N 51°55' E 004°12'0 0.0
2017-Mar-17 09:22N 51°55' E 004°12'0 0.0
2017-Mar-17 08:31N 51°55' E 004°12'0 0.0
2017-Mar-17 07:28N 51°55' E 004°12'0 0.0
2017-Mar-17 06:28N 51°55' E 004°12'0 0.0
2017-Mar-17 05:31N 51°55' E 004°12'0 0.0
2017-Mar-17 04:31N 51°55' E 004°12'0 0.0
2017-Mar-17 03:31N 51°55' E 004°12'0 0.0
2017-Mar-17 02:28N 51°55' E 004°12'0 0.0
2017-Mar-17 01:28N 51°55' E 004°12'0 0.0
2017-Mar-17 00:28N 51°55' E 004°12'0 0.0
2017-Mar-16 23:28N 51°55' E 004°12'  
Track history (hours):
 
Tides and Currents Weather Stations Pressure Air Temp Water Temp Dewpoint Dewpoint Depression Visibility Wind Speed Wind Dir Waves Ship Positions

Scf Baltica

Last reported at 2017-Mar-26 22:33 UTC. Time now 2017-Mar-26 23:07 UTC.
Position N 49°31' W 003°40'.

Length 250 m; draft 8.8 m.

Type: Ship. MMSI: 636012813.

Date/timePositionNaut miles runAvg speedWind from/ knotsBaromVisibWave heightAir tempDewpointWater temp
2017-Mar-26 22:33N 49°31' W 003°40'8 7.1
2017-Mar-26 21:25N 49°27' W 003°51'16 8.1
2017-Mar-26 19:29N 49°19' W 004°11'28 9.1
2017-Mar-26 16:25N 49°05' W 004°48'910.0
2017-Mar-26 15:33N 49°01' W 004°60'1010.1
2017-Mar-26 14:33N 48°56' W 005°13'10 9.8
2017-Mar-26 13:33N 48°51' W 005°26'61 7.6
2017-Mar-26 05:34N 47°50' W 005°19'9 9.5
2017-Mar-26 04:34N 47°47' W 005°05'10 9.6
2017-Mar-26 03:28N 47°44' W 004°51'40 9.9
2017-Mar-25 23:25N 47°31' W 003°54'911.0
2017-Mar-25 22:33N 47°28' W 003°41'1211.8
2017-Mar-25 21:33N 47°21' W 003°27'1110.7
2017-Mar-25 20:34N 47°14' W 003°15'1110.6
2017-Mar-25 19:33N 47°07' W 003°03'1010.3
2017-Mar-25 18:33N 47°01' W 002°51'9 9.0
2017-Mar-25 17:34N 47°01' W 002°38'1110.8
2017-Mar-25 16:33N 47°06' W 002°24'1212.0
2017-Mar-25 15:33N 47°15' W 002°13'5 4.6
2017-Mar-25 14:23N 47°18' W 002°06'0 0.0
2017-Mar-25 13:32N 47°18' W 002°06'0 0.0
2017-Mar-25 12:11N 47°18' W 002°06'0 0.0
2017-Mar-25 11:26N 47°18' W 002°06'0 0.0
2017-Mar-25 10:32N 47°18' W 002°06'0 0.0
2017-Mar-25 09:32N 47°18' W 002°06'0 0.0
2017-Mar-25 08:29N 47°18' W 002°06'0 0.0
2017-Mar-25 07:23N 47°18' W 002°06'0 0.0
2017-Mar-25 06:32N 47°18' W 002°06'0 0.0
2017-Mar-25 05:32N 47°18' W 002°06'0 0.0
2017-Mar-25 04:32N 47°18' W 002°06'0 0.0
2017-Mar-25 03:29N 47°18' W 002°06'0 0.0
2017-Mar-25 02:32N 47°18' W 002°06'1 0.6
2017-Mar-25 01:32N 47°19' W 002°07'1 0.6
2017-Mar-25 00:31N 47°18' W 002°06'0 0.0
2017-Mar-24 23:31N 47°18' W 002°06'0 0.0
2017-Mar-24 22:31N 47°18' W 002°06'0 0.0
2017-Mar-24 21:31N 47°18' W 002°06'0 0.0
2017-Mar-24 20:31N 47°18' W 002°06'0 0.0
2017-Mar-24 19:31N 47°18' W 002°06'0 0.0
2017-Mar-24 18:31N 47°18' W 002°06'0 0.0
2017-Mar-24 17:31N 47°18' W 002°06'0 0.0
2017-Mar-24 16:31N 47°18' W 002°06'0 0.0
2017-Mar-24 15:04N 47°18' W 002°06'0 0.0
2017-Mar-24 14:10N 47°18' W 002°06'1 2.1
2017-Mar-24 13:32N 47°18' W 002°08'9 9.6
2017-Mar-24 12:33N 47°11' W 002°18'8 7.5
2017-Mar-24 11:33N 47°06' W 002°26'0 0.2
2017-Mar-24 10:24N 47°06' W 002°26'0 0.0
2017-Mar-24 09:33N 47°06' W 002°26'0 0.1
2017-Mar-24 08:33N 47°06' W 002°26'0 0.2
2017-Mar-24 07:33N 47°06' W 002°26'5 4.6
2017-Mar-24 06:33N 47°02' W 002°30'1110.5
2017-Mar-24 05:33N 46°58' W 002°44'9 9.4
2017-Mar-24 04:33N 46°58' W 002°58'1110.8
2017-Mar-24 03:32N 47°02' W 003°13'1010.4
2017-Mar-24 02:33N 47°06' W 003°26'1110.6
2017-Mar-24 01:33N 47°10' W 003°40'1110.7
2017-Mar-24 00:33N 47°15' W 003°55'4911.9
2017-Mar-23 20:27N 47°39' W 004°58'1010.9
2017-Mar-23 19:32N 47°44' W 005°10'3210.9
2017-Mar-23 16:33N 48°10' W 005°41'12610.4
2017-Mar-23 04:25N 49°46' W 003°37'1112.3
2017-Mar-23 03:33N 49°52' W 003°23'1211.9
2017-Mar-23 02:33N 49°57' W 003°07'1212.0
2017-Mar-23 01:31N 50°01' W 002°49'3012.9
2017-Mar-22 23:14N 50°09' W 002°04'913.9
2017-Mar-22 22:33N 50°12' W 001°50'1414.2
2017-Mar-22 21:33N 50°16' W 001°29'4513.6
2017-Mar-22 18:13N 50°27' W 000°20'812.6
2017-Mar-22 17:33N 50°30' W 000°07'1312.1
2017-Mar-22 16:29N 50°33' E 000°12'1211.7
2017-Mar-22 15:30N 50°36' E 000°30'1111.4
2017-Mar-22 14:33N 50°42' E 000°44'1212.0
2017-Mar-22 13:33N 50°48' E 001°00'1412.6
2017-Mar-22 12:28N 50°55' E 001°19'1212.8
2017-Mar-22 11:33N 51°04' E 001°32'1212.3
2017-Mar-22 10:33N 51°13' E 001°45'1211.8
2017-Mar-22 09:33N 51°23' E 001°54'1111.4
2017-Mar-22 08:33N 51°32' E 002°05'1211.5
2017-Mar-22 07:32N 51°41' E 002°17'180 9.4
2017-Mar-21 12:23N 54°30' E 000°30'1113.3
2017-Mar-21 11:33N 54°32' E 000°12'1313.5
2017-Mar-21 10:33N 54°35' W 000°10'9 0.2
2017-Mar-19 07:33N 54°37' W 000°25'8 7.9
2017-Mar-19 06:33N 54°35' W 000°12'8 8.3
2017-Mar-19 05:33N 54°33' E 000°02'9 8.6
2017-Mar-19 04:33N 54°31' E 000°16'12 9.0
2017-Mar-19 03:14N 54°29' E 000°36'175 6.1
2017-Mar-17 22:20N 52°09' E 003°33'6 7.9
2017-Mar-17 21:33N 52°06' E 003°41'9 9.5
2017-Mar-17 20:34N 52°02' E 003°56'9 8.6
2017-Mar-17 19:33N 51°58' E 004°08'4 3.6
2017-Mar-17 18:31N 51°55' E 004°12'0 0.0
2017-Mar-17 17:31N 51°55' E 004°12'0 0.0
2017-Mar-17 16:25N 51°55' E 004°12'0 0.0
2017-Mar-17 15:31N 51°55' E 004°12'0 0.0
2017-Mar-17 14:31N 51°55' E 004°12'0 0.0
2017-Mar-17 13:31N 51°55' E 004°12'0 0.0
2017-Mar-17 12:31N 51°55' E 004°12'0 0.0
2017-Mar-17 11:31N 51°55' E 004°12'0 0.0
2017-Mar-17 10:31N 51°55' E 004°12'0 0.0
2017-Mar-17 09:22N 51°55' E 004°12'0 0.0
2017-Mar-17 08:31N 51°55' E 004°12'0 0.0
2017-Mar-17 07:28N 51°55' E 004°12'0 0.0
2017-Mar-17 06:28N 51°55' E 004°12'0 0.0
2017-Mar-17 05:31N 51°55' E 004°12'0 0.0
2017-Mar-17 04:31N 51°55' E 004°12'0 0.0
2017-Mar-17 03:31N 51°55' E 004°12'0 0.0
2017-Mar-17 02:28N 51°55' E 004°12'0 0.0
2017-Mar-17 01:28N 51°55' E 004°12'0 0.0
2017-Mar-17 00:28N 51°55' E 004°12'0 0.0
2017-Mar-16 23:28N 51°55' E 004°12'  

Dump ship's entire track history